createdAt,value
2023-10-27T00:01:35.609Z,75.68
2023-10-27T00:04:03.069Z,72.40
2023-10-27T00:06:34.319Z,73.45
2023-10-27T00:09:02.680Z,77.53
2023-10-27T00:11:30.258Z,75.04
2023-10-27T00:13:57.635Z,76.50
2023-10-27T00:16:25.081Z,75.18
2023-10-27T00:18:52.653Z,74.36
2023-10-27T00:21:20.220Z,74.38
2023-10-27T00:23:47.589Z,72.55
2023-10-27T00:26:15.233Z,71.94
2023-10-27T00:28:42.733Z,71.83
2023-10-27T00:31:10.193Z,71.62
2023-10-27T00:33:37.624Z,72.21
2023-10-27T00:36:06.212Z,71.56
2023-10-27T00:38:33.623Z,71.26
2023-10-27T00:41:01.009Z,72.02
2023-10-27T00:43:28.467Z,73.09
2023-10-27T00:45:56.405Z,74.38
2023-10-27T00:48:24.012Z,71.96
2023-10-27T00:50:51.605Z,72.91
2023-10-27T00:53:22.668Z,75.60
2023-10-27T00:55:51.605Z,73.48
2023-10-27T00:58:21.255Z,74.75
2023-10-27T01:00:48.858Z,74.19
2023-10-27T01:03:16.264Z,74.95
2023-10-27T01:05:43.763Z,73.23
2023-10-27T01:08:11.204Z,72.34
2023-10-27T01:10:38.690Z,70.96
2023-10-27T01:13:06.241Z,73.67
2023-10-27T01:15:33.590Z,72.37
2023-10-27T01:18:01.064Z,71.21
2023-10-27T01:20:28.605Z,75.21
2023-10-27T01:22:56.082Z,72.97
2023-10-27T01:25:24.308Z,72.83
2023-10-27T01:27:51.795Z,70.50
2023-10-27T01:30:19.322Z,72.95
2023-10-27T01:32:47.094Z,74.32
2023-10-27T01:35:14.915Z,72.35
2023-10-27T01:37:42.637Z,71.02
2023-10-27T01:40:11.752Z,74.53
2023-10-27T01:42:39.557Z,74.09
2023-10-27T01:45:08.209Z,73.68
2023-10-27T01:47:35.841Z,73.93
2023-10-27T01:50:03.316Z,73.10
2023-10-27T01:52:30.756Z,72.78
2023-10-27T01:54:59.351Z,74.73
2023-10-27T01:57:27.094Z,73.80
2023-10-27T01:59:54.567Z,74.69
2023-10-27T02:02:22.287Z,72.55
2023-10-27T02:04:52.805Z,74.02
2023-10-27T02:07:25.370Z,73.67
2023-10-27T02:09:53.614Z,72.06
2023-10-27T02:12:20.966Z,71.41
2023-10-27T02:14:48.411Z,74.69
2023-10-27T02:17:15.812Z,73.67
2023-10-27T02:19:43.624Z,72.16
2023-10-27T02:22:11.363Z,73.26
2023-10-27T02:24:45.809Z,73.56
2023-10-27T02:27:13.355Z,72.78
2023-10-27T02:29:40.720Z,71.92
2023-10-27T02:32:08.336Z,72.17
2023-10-27T02:34:35.764Z,72.70
2023-10-27T02:37:03.350Z,72.32
2023-10-27T02:39:30.719Z,71.62
2023-10-27T02:41:58.241Z,72.72
2023-10-27T02:44:25.606Z,71.20
2023-10-27T02:46:53.377Z,72.97
2023-10-27T02:49:20.832Z,70.05
2023-10-27T02:51:48.294Z,70.60
2023-10-27T02:54:15.732Z,69.71
2023-10-27T02:56:43.138Z,70.72
2023-10-27T02:59:10.836Z,69.26
2023-10-27T03:01:38.685Z,69.76
2023-10-27T03:04:06.563Z,72.64
2023-10-27T03:06:34.092Z,69.37
2023-10-27T03:09:01.568Z,70.13
2023-10-27T03:11:28.959Z,69.39
2023-10-27T03:13:56.598Z,67.87
2023-10-27T03:16:24.056Z,68.11
2023-10-27T03:18:52.117Z,69.22
2023-10-27T03:21:19.667Z,69.95
2023-10-27T03:23:47.096Z,69.63
2023-10-27T03:26:14.479Z,71.34
2023-10-27T03:28:43.607Z,72.57
2023-10-27T03:31:14.731Z,72.00
2023-10-27T03:33:42.234Z,71.45
2023-10-27T03:36:10.309Z,72.17
2023-10-27T03:38:37.742Z,68.93
2023-10-27T03:41:05.364Z,71.67
2023-10-27T03:43:36.016Z,72.39
2023-10-27T03:46:04.061Z,71.29
2023-10-27T03:48:31.579Z,73.47
2023-10-27T03:50:59.314Z,71.68
2023-10-27T03:53:26.668Z,70.02
2023-10-27T03:55:55.102Z,70.62
2023-10-27T03:58:27.503Z,69.13
2023-10-27T04:01:00.974Z,70.34
2023-10-27T04:03:30.240Z,71.89
2023-10-27T04:05:57.756Z,70.07
2023-10-27T04:08:25.330Z,71.76
2023-10-27T04:10:53.372Z,70.67
2023-10-27T04:13:21.431Z,71.38
2023-10-27T04:15:48.803Z,73.34
2023-10-27T04:18:16.258Z,70.61
2023-10-27T04:20:43.723Z,71.16
2023-10-27T04:23:11.158Z,71.58
2023-10-27T04:25:40.566Z,72.83
2023-10-27T04:28:08.177Z,71.85
2023-10-27T04:30:37.777Z,72.72
2023-10-27T04:33:11.522Z,72.76
2023-10-27T04:35:39.276Z,71.83
2023-10-27T04:38:06.596Z,74.29
2023-10-27T04:40:35.785Z,73.06
2023-10-27T04:43:06.774Z,72.49
2023-10-27T04:45:34.271Z,76.31
2023-10-27T04:48:01.625Z,74.37
2023-10-27T04:50:29.421Z,75.68
2023-10-27T04:52:56.917Z,72.80
2023-10-27T04:55:25.214Z,73.05
2023-10-27T04:57:53.013Z,72.47
2023-10-27T05:00:20.574Z,73.99
2023-10-27T05:02:48.329Z,73.39
2023-10-27T05:05:15.858Z,74.33
2023-10-27T05:07:43.660Z,76.26
2023-10-27T05:10:11.328Z,75.40
2023-10-27T05:12:39.268Z,72.85
2023-10-27T05:15:07.752Z,74.70
2023-10-27T05:17:37.217Z,72.17
2023-10-27T05:20:09.937Z,71.70
2023-10-27T05:22:37.310Z,72.63
2023-10-27T05:25:10.784Z,72.07
2023-10-27T05:27:38.558Z,72.91
2023-10-27T05:30:07.438Z,75.50
2023-10-27T05:32:34.947Z,73.06
2023-10-27T05:35:02.660Z,74.98
2023-10-27T05:37:30.185Z,75.89
2023-10-27T05:39:57.731Z,72.17
2023-10-27T05:42:25.244Z,73.66
2023-10-27T05:44:52.784Z,74.62
2023-10-27T05:47:21.165Z,74.04
2023-10-27T05:49:48.836Z,74.29
2023-10-27T05:52:17.606Z,74.66
2023-10-27T05:54:47.226Z,73.45
2023-10-27T05:57:16.230Z,70.73
2023-10-27T05:59:44.182Z,74.11
2023-10-27T06:02:15.635Z,72.35
2023-10-27T06:04:44.508Z,72.32
2023-10-27T06:07:16.964Z,73.26
2023-10-27T06:09:46.172Z,75.19
2023-10-27T06:12:13.944Z,72.33
2023-10-27T06:14:46.006Z,72.72
2023-10-27T06:17:14.800Z,73.97
2023-10-27T06:19:42.368Z,76.33
2023-10-27T06:22:10.962Z,74.49
2023-10-27T06:24:38.476Z,74.68
2023-10-27T06:27:07.024Z,75.96
2023-10-27T06:29:35.519Z,75.26
2023-10-27T06:32:04.849Z,76.98
2023-10-27T06:34:32.542Z,74.11
2023-10-27T06:37:01.620Z,74.47
2023-10-27T06:39:29.877Z,74.68
2023-10-27T06:41:57.297Z,73.42
2023-10-27T06:44:24.735Z,75.00
2023-10-27T06:46:52.344Z,73.17
2023-10-27T06:49:27.013Z,73.27
2023-10-27T06:51:54.892Z,72.89
2023-10-27T06:54:22.680Z,73.78
2023-10-27T06:56:51.924Z,73.27
2023-10-27T06:59:20.041Z,71.69
2023-10-27T07:01:47.516Z,76.03
2023-10-27T07:04:15.185Z,74.20
2023-10-27T07:06:45.763Z,73.49
2023-10-27T07:09:13.190Z,75.15
2023-10-27T07:11:40.625Z,74.78
2023-10-27T07:14:08.251Z,73.08
2023-10-27T07:16:36.019Z,72.73
2023-10-27T07:19:05.323Z,75.54
2023-10-27T07:21:32.850Z,74.29
2023-10-27T07:24:00.342Z,71.36
2023-10-27T07:26:28.087Z,74.56
2023-10-27T07:28:55.622Z,73.12
2023-10-27T07:31:23.183Z,72.74
2023-10-27T07:33:50.647Z,71.08
2023-10-27T07:36:18.425Z,71.76
2023-10-27T07:38:46.067Z,74.48
2023-10-27T07:41:13.937Z,76.64
2023-10-27T07:43:41.381Z,77.46
2023-10-27T07:46:09.355Z,75.97
2023-10-27T07:48:36.986Z,76.54
2023-10-27T07:51:05.104Z,77.39
2023-10-27T07:53:32.796Z,74.60
2023-10-27T07:56:01.076Z,76.97
2023-10-27T07:58:28.853Z,74.15
2023-10-27T08:00:57.209Z,75.05
2023-10-27T08:03:26.392Z,74.69
2023-10-27T08:05:54.260Z,74.87
2023-10-27T08:08:24.844Z,74.49
2023-10-27T08:10:52.648Z,76.02
2023-10-27T08:13:22.567Z,72.98
2023-10-27T08:15:50.828Z,73.93
2023-10-27T08:18:18.539Z,76.83
2023-10-27T08:20:46.626Z,74.88
2023-10-27T08:23:14.097Z,74.55
2023-10-27T08:25:41.839Z,72.02
2023-10-27T08:28:09.703Z,72.61
2023-10-27T08:30:37.391Z,73.48
2023-10-27T08:33:04.929Z,73.63
2023-10-27T08:35:33.888Z,73.68
2023-10-27T08:38:01.739Z,72.92
2023-10-27T08:40:32.686Z,72.40
2023-10-27T08:43:00.671Z,74.08
2023-10-27T08:45:29.447Z,73.93
2023-10-27T08:48:02.354Z,73.54
2023-10-27T08:50:36.229Z,71.16
2023-10-27T08:53:05.935Z,72.79
2023-10-27T08:55:34.089Z,74.90
2023-10-27T08:58:02.388Z,76.55
2023-10-27T09:00:29.895Z,73.42
2023-10-27T09:03:15.081Z,74.45
2023-10-27T09:05:43.554Z,75.52
2023-10-27T09:08:12.332Z,72.73
2023-10-27T09:10:48.161Z,76.41
2023-10-27T09:13:25.917Z,73.46
2023-10-27T09:15:53.930Z,73.95
2023-10-27T09:18:37.197Z,75.34
2023-10-27T09:21:05.715Z,74.44
2023-10-27T09:23:46.805Z,74.38
2023-10-27T09:26:14.329Z,73.29
2023-10-27T09:28:42.189Z,70.96
2023-10-27T09:31:09.958Z,74.33
2023-10-27T09:33:37.898Z,73.38
2023-10-27T09:36:06.403Z,74.43
2023-10-27T09:38:33.786Z,73.75
2023-10-27T09:41:05.422Z,72.53
2023-10-27T09:43:39.828Z,73.32
2023-10-27T09:46:09.039Z,73.76
2023-10-27T09:48:38.618Z,71.10
2023-10-27T09:51:17.986Z,71.27
2023-10-27T09:53:49.203Z,72.20
2023-10-27T09:56:19.234Z,73.90
2023-10-27T09:58:47.085Z,71.92
2023-10-27T10:01:16.914Z,72.11
2023-10-27T10:03:45.075Z,73.64
2023-10-27T10:06:31.172Z,73.09
2023-10-27T10:09:20.448Z,70.85
2023-10-27T10:11:55.880Z,71.88
2023-10-27T10:14:38.245Z,72.57
2023-10-27T10:17:07.142Z,71.82
2023-10-27T10:19:52.021Z,71.59
2023-10-27T10:22:41.670Z,70.88
2023-10-27T10:25:22.689Z,71.14
2023-10-27T10:28:08.646Z,69.70
2023-10-27T10:30:48.189Z,69.54
2023-10-27T10:33:18.461Z,71.77
2023-10-27T10:35:48.433Z,71.80
2023-10-27T10:38:22.773Z,71.00
2023-10-27T10:41:02.784Z,71.27
2023-10-27T10:43:35.844Z,71.02
2023-10-27T10:46:06.597Z,72.29
2023-10-27T10:48:46.351Z,71.39
2023-10-27T10:51:20.414Z,71.69
2023-10-27T10:53:55.895Z,69.24
2023-10-27T10:56:25.793Z,73.31
2023-10-27T10:58:55.580Z,71.68
2023-10-27T11:01:24.915Z,71.75
2023-10-27T11:03:55.723Z,72.14
2023-10-27T11:06:30.630Z,69.84
2023-10-27T11:08:58.057Z,69.65
2023-10-27T11:11:38.246Z,69.60
2023-10-27T11:14:09.571Z,71.53
2023-10-27T11:16:38.304Z,71.21
2023-10-27T11:19:17.966Z,70.58
2023-10-27T11:21:45.556Z,68.62
2023-10-27T11:24:14.138Z,70.98
2023-10-27T11:26:43.646Z,71.61
2023-10-27T11:29:11.935Z,69.36
2023-10-27T11:31:44.075Z,70.86
2023-10-27T11:34:14.426Z,70.00
2023-10-27T11:37:08.727Z,68.05
2023-10-27T11:39:37.013Z,70.43
2023-10-27T11:42:04.985Z,68.83
2023-10-27T11:44:41.980Z,69.37
2023-10-27T11:47:09.428Z,68.80
2023-10-27T11:49:36.875Z,68.93
2023-10-27T11:52:06.475Z,67.88
2023-10-27T11:54:33.983Z,66.25
2023-10-27T11:57:01.647Z,67.64
2023-10-27T11:59:31.366Z,66.16
2023-10-27T12:01:58.783Z,66.77
2023-10-27T12:04:26.549Z,65.21
2023-10-27T12:06:55.232Z,66.44
2023-10-27T12:09:23.540Z,67.60
2023-10-27T12:11:51.700Z,66.07
2023-10-27T12:14:19.130Z,66.48
2023-10-27T12:16:46.565Z,67.15
2023-10-27T12:19:17.204Z,68.40
2023-10-27T12:21:44.765Z,68.67
2023-10-27T12:24:12.732Z,69.96
2023-10-27T12:26:40.201Z,67.95
2023-10-27T12:29:09.666Z,69.06
2023-10-27T12:31:42.778Z,65.31
2023-10-27T12:34:10.477Z,71.27
2023-10-27T12:36:37.901Z,69.32
2023-10-27T12:39:05.535Z,68.86
2023-10-27T12:41:33.228Z,67.71
2023-10-27T12:44:01.406Z,70.00
2023-10-27T12:46:29.229Z,70.85
2023-10-27T12:48:56.734Z,69.54
2023-10-27T12:51:24.449Z,68.63
2023-10-27T12:53:52.641Z,70.89
2023-10-27T12:56:20.098Z,67.11
2023-10-27T12:58:47.805Z,68.60
2023-10-27T13:01:15.380Z,69.04
2023-10-27T13:03:42.839Z,67.61
2023-10-27T13:06:17.554Z,66.29
2023-10-27T13:08:45.054Z,69.30
2023-10-27T13:11:14.508Z,68.06
2023-10-27T13:13:42.083Z,71.20
2023-10-27T13:16:16.588Z,69.91
2023-10-27T13:18:44.472Z,68.41
2023-10-27T13:21:16.491Z,66.54
2023-10-27T13:23:44.510Z,68.83
2023-10-27T13:26:12.368Z,66.75
2023-10-27T13:28:39.925Z,68.83
2023-10-27T13:31:07.843Z,67.37
2023-10-27T13:33:35.729Z,66.02
2023-10-27T13:36:10.728Z,68.34
2023-10-27T13:38:39.774Z,68.09
2023-10-27T13:41:24.975Z,70.50
2023-10-27T13:43:52.569Z,69.44
2023-10-27T13:46:20.139Z,70.29
2023-10-27T13:48:48.380Z,67.61
2023-10-27T13:51:15.894Z,67.14
2023-10-27T13:53:43.849Z,69.83
2023-10-27T13:56:14.418Z,68.23
2023-10-27T13:58:45.709Z,69.70
2023-10-27T14:01:13.264Z,68.97
2023-10-27T14:03:41.078Z,71.13
2023-10-27T14:06:13.266Z,70.07
2023-10-27T14:08:42.840Z,70.49
2023-10-27T14:11:11.029Z,72.17
2023-10-27T14:13:38.600Z,70.69
2023-10-27T14:16:13.441Z,71.41
2023-10-27T14:18:41.564Z,70.17
2023-10-27T14:21:09.426Z,69.41
2023-10-27T14:23:37.285Z,67.95
2023-10-27T14:26:05.290Z,69.96
2023-10-27T14:28:34.437Z,70.45
2023-10-27T14:31:04.210Z,68.97
2023-10-27T14:33:31.631Z,67.76
2023-10-27T14:36:03.860Z,68.83
2023-10-27T14:38:31.775Z,70.56
2023-10-27T14:41:00.599Z,66.95
2023-10-27T14:43:28.136Z,67.84
2023-10-27T14:46:03.858Z,67.43
2023-10-27T14:48:32.454Z,70.16
2023-10-27T14:51:11.810Z,67.90
2023-10-27T14:53:39.281Z,70.31
2023-10-27T14:56:11.699Z,71.10
2023-10-27T14:58:40.616Z,69.75
2023-10-27T15:01:13.052Z,70.42
2023-10-27T15:03:40.755Z,69.96
2023-10-27T15:06:10.541Z,71.15
2023-10-27T15:08:39.866Z,70.95
2023-10-27T15:11:10.908Z,71.23
2023-10-27T15:13:38.758Z,70.46
2023-10-27T15:16:14.956Z,70.47
2023-10-27T15:18:43.472Z,69.16
2023-10-27T15:21:13.495Z,69.32
2023-10-27T15:23:41.290Z,70.96
2023-10-27T15:26:09.788Z,70.92
2023-10-27T15:28:37.249Z,70.00
2023-10-27T15:31:10.237Z,69.03
2023-10-27T15:33:39.835Z,67.70
2023-10-27T15:36:12.398Z,69.09
2023-10-27T15:38:44.318Z,67.69
2023-10-27T15:41:40.057Z,70.02
2023-10-27T15:44:08.867Z,68.48
2023-10-27T15:46:38.009Z,67.38
2023-10-27T15:49:05.467Z,69.26
2023-10-27T15:51:32.881Z,69.56
2023-10-27T15:54:01.476Z,69.04
2023-10-27T15:56:29.043Z,70.88
2023-10-27T15:59:03.794Z,69.64
2023-10-27T16:01:31.474Z,68.94
2023-10-27T16:03:59.020Z,72.74
2023-10-27T16:06:26.545Z,71.38
2023-10-27T16:08:55.235Z,72.96
2023-10-27T16:11:24.580Z,71.97
2023-10-27T16:13:52.753Z,70.92
2023-10-27T16:16:20.237Z,70.41
2023-10-27T16:18:49.229Z,71.58
2023-10-27T16:21:17.534Z,69.57
2023-10-27T16:23:45.170Z,67.77
2023-10-27T16:26:12.823Z,68.81
2023-10-27T16:28:40.540Z,68.01
2023-10-27T16:31:08.206Z,67.16
2023-10-27T16:33:35.899Z,70.77
2023-10-27T16:36:08.351Z,71.57
2023-10-27T16:38:35.853Z,69.88
2023-10-27T16:41:06.620Z,68.50
2023-10-27T16:43:45.930Z,66.27
2023-10-27T16:46:14.388Z,67.06
2023-10-27T16:48:42.379Z,66.87
2023-10-27T16:51:16.626Z,67.77
2023-10-27T16:53:44.880Z,68.37
2023-10-27T16:56:14.343Z,67.95
2023-10-27T16:58:41.992Z,67.77
2023-10-27T17:01:09.586Z,68.97
2023-10-27T17:03:37.797Z,69.37
2023-10-27T17:06:06.777Z,68.83
2023-10-27T17:08:34.616Z,66.98
2023-10-27T17:11:03.959Z,69.65
2023-10-27T17:13:31.406Z,68.51
2023-10-27T17:16:10.136Z,68.10
2023-10-27T17:18:43.292Z,68.82
2023-10-27T17:21:22.060Z,67.49
2023-10-27T17:24:00.197Z,67.79
2023-10-27T17:26:27.566Z,68.75
2023-10-27T17:28:54.986Z,68.49
2023-10-27T17:31:26.968Z,69.29
2023-10-27T17:33:59.500Z,67.54
2023-10-27T17:36:29.748Z,68.33
2023-10-27T17:38:57.823Z,69.77
2023-10-27T17:41:25.570Z,69.83
2023-10-27T17:43:53.036Z,69.55
2023-10-27T17:46:20.874Z,69.44
2023-10-27T17:48:49.975Z,69.30
2023-10-27T17:51:17.757Z,70.60
2023-10-27T17:53:45.413Z,69.12
2023-10-27T17:56:13.636Z,68.02
2023-10-27T17:58:41.152Z,71.06
2023-10-27T18:01:11.797Z,70.21
2023-10-27T18:03:41.347Z,70.02
2023-10-27T18:06:13.575Z,70.08
2023-10-27T18:08:41.167Z,67.96
2023-10-27T18:11:09.828Z,68.40
2023-10-27T18:13:37.685Z,67.66
2023-10-27T18:16:09.580Z,68.28
2023-10-27T18:18:37.749Z,68.73
2023-10-27T18:21:08.118Z,69.58
2023-10-27T18:23:36.530Z,68.41
2023-10-27T18:26:18.669Z,68.95
2023-10-27T18:28:49.280Z,69.95
2023-10-27T18:31:20.137Z,65.40
2023-10-27T18:33:47.623Z,66.12
2023-10-27T18:36:19.328Z,66.91
2023-10-27T18:38:49.740Z,67.12
2023-10-27T18:41:21.689Z,66.69
2023-10-27T18:43:53.456Z,67.71
2023-10-27T18:46:21.097Z,67.72
2023-10-27T18:48:49.196Z,67.13
2023-10-27T18:51:17.024Z,68.09
2023-10-27T18:53:46.188Z,67.39
2023-10-27T18:56:14.864Z,68.33
2023-10-27T18:58:47.058Z,67.02
2023-10-27T19:01:15.996Z,68.99
2023-10-27T19:03:50.682Z,68.49
2023-10-27T19:06:19.624Z,68.25
2023-10-27T19:08:47.208Z,66.71
2023-10-27T19:11:16.105Z,66.83
2023-10-27T19:13:44.532Z,66.56
2023-10-27T19:16:15.692Z,68.85
2023-10-27T19:18:46.497Z,70.56
2023-10-27T19:21:18.420Z,72.41
2023-10-27T19:23:52.114Z,69.92
2023-10-27T19:26:25.449Z,70.96
2023-10-27T19:28:55.664Z,71.55
2023-10-27T19:31:26.901Z,71.05
2023-10-27T19:33:56.869Z,73.95
2023-10-27T19:36:31.278Z,71.05
2023-10-27T19:38:58.958Z,71.73
2023-10-27T19:41:29.385Z,73.00
2023-10-27T19:43:57.025Z,72.76
2023-10-27T19:46:25.008Z,73.35
2023-10-27T19:48:53.602Z,71.74
2023-10-27T19:51:20.977Z,72.50
2023-10-27T19:53:48.619Z,72.92
2023-10-27T19:56:17.953Z,73.68
2023-10-27T19:58:48.753Z,75.58
2023-10-27T20:01:22.954Z,75.41
2023-10-27T20:03:51.840Z,73.81
2023-10-27T20:06:22.131Z,73.97
2023-10-27T20:08:51.504Z,74.16
2023-10-27T20:11:19.037Z,74.44
2023-10-27T20:13:47.773Z,72.54
2023-10-27T20:16:20.957Z,73.15
2023-10-27T20:18:49.677Z,74.31
2023-10-27T20:21:17.351Z,72.38
2023-10-27T20:23:46.665Z,71.27
2023-10-27T20:26:15.797Z,70.82
2023-10-27T20:28:43.315Z,71.01
2023-10-27T20:31:13.967Z,69.28
2023-10-27T20:33:41.530Z,71.30
2023-10-27T20:36:09.371Z,70.98
2023-10-27T20:38:38.222Z,70.37
2023-10-27T20:41:06.242Z,68.62
2023-10-27T20:43:33.898Z,69.97
2023-10-27T20:46:04.713Z,68.84
2023-10-27T20:48:32.596Z,68.74
2023-10-27T20:51:04.585Z,70.42
2023-10-27T20:53:32.158Z,69.14
2023-10-27T20:56:00.812Z,68.44
2023-10-27T20:58:28.548Z,68.95
2023-10-27T21:00:56.279Z,70.51
2023-10-27T21:03:23.874Z,70.55
2023-10-27T21:05:51.449Z,71.76
2023-10-27T21:08:18.930Z,71.27
2023-10-27T21:10:46.566Z,73.51
2023-10-27T21:13:15.398Z,71.70
2023-10-27T21:15:42.843Z,72.26
2023-10-27T21:18:11.075Z,72.48
2023-10-27T21:20:40.446Z,74.17
2023-10-27T21:23:11.049Z,73.08
2023-10-27T21:25:38.593Z,71.06
2023-10-27T21:28:06.959Z,73.65
2023-10-27T21:30:34.517Z,75.30
2023-10-27T21:33:01.951Z,74.19
2023-10-27T21:35:29.276Z,73.63
2023-10-27T21:37:58.426Z,73.18
2023-10-27T21:40:25.920Z,72.16
2023-10-27T21:42:53.346Z,73.59
2023-10-27T21:45:20.768Z,72.91
2023-10-27T21:47:48.319Z,72.91
2023-10-27T21:50:16.466Z,71.97
2023-10-27T21:52:43.948Z,71.93
2023-10-27T21:55:11.496Z,73.83
2023-10-27T21:57:38.838Z,73.08
2023-10-27T22:00:29.859Z,74.53
2023-10-27T22:02:57.541Z,73.83
2023-10-27T22:05:25.768Z,74.17
2023-10-27T22:07:54.231Z,75.55
2023-10-27T22:10:21.801Z,75.41
2023-10-27T22:12:49.556Z,73.79
2023-10-27T22:15:17.606Z,74.75
2023-10-27T22:17:47.831Z,75.10
2023-10-27T22:20:16.158Z,73.64
2023-10-27T22:22:43.804Z,74.97
2023-10-27T22:25:11.230Z,74.65
2023-10-27T22:27:38.661Z,75.03
2023-10-27T22:30:08.225Z,75.08
2023-10-27T22:32:36.251Z,76.14
2023-10-27T22:35:04.386Z,76.66
2023-10-27T22:37:32.155Z,75.69
2023-10-27T22:39:59.583Z,75.91
2023-10-27T22:42:26.926Z,76.11
2023-10-27T22:44:54.389Z,74.72
2023-10-27T22:47:22.603Z,75.74
2023-10-27T22:49:50.576Z,74.34
2023-10-27T22:52:18.025Z,74.51
2023-10-27T22:54:45.325Z,74.35
2023-10-27T22:57:12.672Z,75.58
2023-10-27T22:59:40.614Z,75.52
2023-10-27T23:02:09.189Z,76.76
2023-10-27T23:04:36.969Z,75.77
2023-10-27T23:07:05.579Z,76.34
2023-10-27T23:09:33.078Z,77.16
2023-10-27T23:12:00.495Z,75.37
2023-10-27T23:14:28.104Z,76.59
2023-10-27T23:16:55.772Z,74.32
2023-10-27T23:19:24.850Z,75.24
2023-10-27T23:21:52.801Z,74.33
2023-10-27T23:24:20.452Z,75.13
2023-10-27T23:26:47.955Z,73.40
2023-10-27T23:29:15.683Z,74.06
2023-10-27T23:31:43.448Z,73.66
2023-10-27T23:34:10.777Z,74.17
2023-10-27T23:36:39.026Z,74.15
2023-10-27T23:39:07.129Z,74.07
2023-10-27T23:41:34.613Z,73.92
2023-10-27T23:44:02.036Z,75.00
2023-10-27T23:46:29.505Z,75.64
2023-10-27T23:48:57.229Z,75.61
2023-10-27T23:51:24.554Z,73.61
2023-10-27T23:53:51.891Z,75.55
2023-10-27T23:56:19.250Z,75.19
2023-10-27T23:58:46.778Z,75.12
